Time;durP1;ratioP1;P1;durP2;ratioP2;P2;SDS_P1;SDS_P2;PMS_P1;PMS_P2;Temp;Humidity;BMP_temperature;BMP_pressure;BME280_temperature;BME280_humidity;BME280_pressure;Samples;Min_cycle;Max_cycle;Signal;HPM_P1;HPM_P2
2022/10/30 00:01:21;;;;;;;24.38;11.15;;;;;;;;;;4969228;28;20059;-63
2022/10/30 00:03:46;;;;;;;22.25;12.05;;;;;;;;;;4987313;28;20503;-63
2022/10/30 00:06:11;;;;;;;19.35;11.00;;;;;;;;;;4988006;28;20336;-63
2022/10/30 00:08:36;;;;;;;17.20;10.05;;;;;;;;;;4987731;28;20558;-63
2022/10/30 00:11:10;;;;;;;24.33;11.50;;;;;;;;;;4987039;28;20432;-63
2022/10/30 00:13:36;;;;;;;17.05;11.00;;;;;;;;;;4987816;28;20316;-63
2022/10/30 00:16:04;;;;;;;22.00;12.20;;;;;;;;;;4987232;28;20375;-63
2022/10/30 00:18:30;;;;;;;20.38;11.05;;;;;;;;;;4987836;28;20029;-64
2022/10/30 00:20:55;;;;;;;16.50;10.90;;;;;;;;;;4987144;28;20494;-63
2022/10/30 00:23:20;;;;;;;18.10;11.10;;;;;;;;;;4988050;28;20475;-63
2022/10/30 00:25:46;;;;;;;21.17;11.85;;;;;;;;;;4987403;28;20356;-63
2022/10/30 00:28:11;;;;;;;20.60;11.40;;;;;;;;;;4987232;28;20321;-63
2022/10/30 00:30:37;;;;;;;21.10;11.45;;;;;;;;;;4987859;28;20048;-63
2022/10/30 00:33:02;;;;;;;22.25;12.43;;;;;;;;;;4986602;28;20399;-63
2022/10/30 00:35:28;;;;;;;20.15;10.98;;;;;;;;;;4988506;28;20328;-63
2022/10/30 00:37:54;;;;;;;24.67;12.45;;;;;;;;;;4992890;28;20044;-63
2022/10/30 00:40:19;;;;;;;21.30;12.77;;;;;;;;;;4990895;28;20308;-63
2022/10/30 00:42:44;;;;;;;23.48;11.73;;;;;;;;;;4988982;28;20024;-63
2022/10/30 00:45:11;;;;;;;22.05;12.30;;;;;;;;;;4991360;28;20415;-63
2022/10/30 00:47:39;;;;;;;24.73;12.35;;;;;;;;;;4992712;28;20033;-63
2022/10/30 00:50:09;;;;;;;21.27;12.27;;;;;;;;;;4972784;28;20450;-63
2022/10/30 00:52:39;;;;;;;24.38;13.52;;;;;;;;;;4989308;28;20029;-64
2022/10/30 00:55:13;;;;;;;25.58;12.65;;;;;;;;;;4989054;28;20501;-63
2022/10/30 00:57:40;;;;;;;24.38;13.43;;;;;;;;;;4990461;28;20436;-63
2022/10/30 01:00:06;;;;;;;24.63;13.75;;;;;;;;;;4990835;28;20429;-63
2022/10/30 01:02:32;;;;;;;23.08;12.98;;;;;;;;;;4970983;28;20390;-63
2022/10/30 01:04:58;;;;;;;24.63;12.70;;;;;;;;;;4971861;28;20348;-63
2022/10/30 01:07:23;;;;;;;20.80;11.85;;;;;;;;;;4970662;28;20095;-63
2022/10/30 01:09:49;;;;;;;23.88;12.93;;;;;;;;;;4972616;28;20069;-63
2022/10/30 01:12:15;;;;;;;23.83;12.13;;;;;;;;;;4970802;28;20382;-63
2022/10/30 01:14:47;;;;;;;24.33;13.18;;;;;;;;;;4970561;28;20057;-63
2022/10/30 01:17:25;;;;;;;24.23;12.68;;;;;;;;;;4970219;28;20384;-63
2022/10/30 01:19:56;;;;;;;24.35;12.25;;;;;;;;;;4970255;28;20541;-63
2022/10/30 01:22:46;;;;;;;26.05;12.98;;;;;;;;;;4970664;28;20432;-63
2022/10/30 01:25:17;;;;;;;23.02;12.73;;;;;;;;;;4970239;28;20464;-63
2022/10/30 01:27:48;;;;;;;20.50;12.93;;;;;;;;;;4970142;28;20433;-63
2022/10/30 01:30:46;;;;;;;18.25;10.73;;;;;;;;;;4970204;28;20424;-63
2022/10/30 01:33:41;;;;;;;22.27;13.00;;;;;;;;;;4965004;28;20076;-63
2022/10/30 01:36:29;;;;;;;20.15;11.73;;;;;;;;;;4969813;28;20456;-63
2022/10/30 01:38:59;;;;;;;19.08;10.93;;;;;;;;;;4952534;28;20069;-63
2022/10/30 01:41:24;;;;;;;18.70;10.18;;;;;;;;;;4971119;28;20366;-63
2022/10/30 01:43:54;;;;;;;20.67;11.75;;;;;;;;;;4970837;28;20092;-63
2022/10/30 01:46:30;;;;;;;21.75;12.00;;;;;;;;;;4969662;28;20424;-63
2022/10/30 01:49:17;;;;;;;19.88;11.23;;;;;;;;;;4952188;28;20417;-63
2022/10/30 01:52:05;;;;;;;23.33;12.10;;;;;;;;;;4970218;28;20465;-63
2022/10/30 01:54:36;;;;;;;19.52;10.38;;;;;;;;;;4951757;28;20449;-63
2022/10/30 01:57:11;;;;;;;18.23;10.43;;;;;;;;;;4969428;28;20460;-63
2022/10/30 02:00:05;;;;;;;24.33;12.15;;;;;;;;;;4951729;28;20368;-63
2022/10/30 02:02:31;;;;;;;25.92;11.63;;;;;;;;;;4969295;28;20379;-63
2022/10/30 02:04:57;;;;;;;20.75;11.18;;;;;;;;;;4970957;28;20056;-63
2022/10/30 02:07:22;;;;;;;20.75;10.75;;;;;;;;;;4969596;28;20464;-63
2022/10/30 02:09:50;;;;;;;20.98;9.90;;;;;;;;;;4969496;28;20471;-63
2022/10/30 02:12:15;;;;;;;17.95;10.45;;;;;;;;;;4951677;28;20025;-63
2022/10/30 02:14:44;;;;;;;17.88;9.65;;;;;;;;;;4951605;28;20499;-63
2022/10/30 02:17:10;;;;;;;15.95;10.00;;;;;;;;;;4951272;28;20472;-63
2022/10/30 02:19:36;;;;;;;19.63;9.48;;;;;;;;;;4951670;28;20530;-63
2022/10/30 02:22:02;;;;;;;19.33;10.35;;;;;;;;;;4970186;28;20504;-63
2022/10/30 02:24:28;;;;;;;22.05;10.07;;;;;;;;;;4951866;28;20579;-64
2022/10/30 02:26:54;;;;;;;24.63;11.13;;;;;;;;;;4969083;28;20029;-63
2022/10/30 02:29:20;;;;;;;18.00;10.10;;;;;;;;;;4970889;28;20451;-63
2022/10/30 02:31:46;;;;;;;17.83;10.90;;;;;;;;;;4969754;28;20428;-63
2022/10/30 02:34:11;;;;;;;17.83;9.75;;;;;;;;;;4969510;28;20443;-63
2022/10/30 02:36:36;;;;;;;17.55;9.73;;;;;;;;;;4969524;28;20475;-63
2022/10/30 02:39:02;;;;;;;16.42;9.57;;;;;;;;;;4968669;28;20376;-63
2022/10/30 02:41:27;;;;;;;15.32;10.13;;;;;;;;;;4968595;28;20092;-63
2022/10/30 02:43:52;;;;;;;14.93;8.70;;;;;;;;;;4969816;28;20407;-64
2022/10/30 02:46:18;;;;;;;15.18;8.10;;;;;;;;;;4968945;28;20343;-63
2022/10/30 02:48:43;;;;;;;14.20;8.75;;;;;;;;;;4968469;28;20520;-63
2022/10/30 02:51:09;;;;;;;16.30;9.35;;;;;;;;;;4950758;28;20393;-63
2022/10/30 02:53:34;;;;;;;16.50;8.93;;;;;;;;;;4968844;28;20344;-63
2022/10/30 02:56:04;;;;;;;19.25;9.80;;;;;;;;;;4968528;28;20317;-63
2022/10/30 02:58:29;;;;;;;21.67;9.27;;;;;;;;;;4968260;28;20037;-63
2022/10/30 03:00:54;;;;;;;15.50;10.02;;;;;;;;;;4967443;28;20463;-63
2022/10/30 03:03:20;;;;;;;15.32;9.20;;;;;;;;;;4968746;28;20360;-63
2022/10/30 03:05:45;;;;;;;17.88;9.70;;;;;;;;;;4968745;28;20507;-63
2022/10/30 03:08:10;;;;;;;17.77;9.60;;;;;;;;;;4968302;28;20495;-64
2022/10/30 03:10:36;;;;;;;21.55;10.25;;;;;;;;;;4968769;28;20395;-63
2022/10/30 03:13:01;;;;;;;19.42;10.15;;;;;;;;;;4968412;28;20444;-63
2022/10/30 03:15:26;;;;;;;20.08;10.07;;;;;;;;;;4968196;28;20515;-63
2022/10/30 03:17:52;;;;;;;20.40;10.00;;;;;;;;;;4968168;28;20586;-63
2022/10/30 03:20:18;;;;;;;18.85;10.48;;;;;;;;;;4968111;28;20508;-63
2022/10/30 03:22:43;;;;;;;19.65;9.82;;;;;;;;;;4968074;28;20530;-63
2022/10/30 03:25:08;;;;;;;18.42;9.77;;;;;;;;;;4970547;28;20029;-63
2022/10/30 03:27:34;;;;;;;18.40;9.60;;;;;;;;;;4968093;28;20474;-63
2022/10/30 03:29:59;;;;;;;21.27;11.18;;;;;;;;;;4967842;28;20384;-63
2022/10/30 03:32:24;;;;;;;15.95;9.82;;;;;;;;;;4968015;28;20429;-64
2022/10/30 03:34:49;;;;;;;16.33;8.82;;;;;;;;;;4967994;28;20409;-63
2022/10/30 03:37:15;;;;;;;18.90;9.23;;;;;;;;;;4968292;28;20030;-63
2022/10/30 03:39:40;;;;;;;18.98;9.20;;;;;;;;;;4967933;28;20448;-63
2022/10/30 03:42:05;;;;;;;20.15;11.07;;;;;;;;;;4967648;28;20419;-64
2022/10/30 03:44:31;;;;;;;19.02;10.05;;;;;;;;;;4968906;28;20442;-63
2022/10/30 03:46:57;;;;;;;18.05;10.23;;;;;;;;;;4969889;28;20523;-63
2022/10/30 03:49:22;;;;;;;14.27;7.70;;;;;;;;;;4967811;28;20516;-63
2022/10/30 03:51:47;;;;;;;18.02;9.80;;;;;;;;;;4969034;28;20041;-63
2022/10/30 03:54:13;;;;;;;18.70;10.55;;;;;;;;;;4968147;28;20503;-63
2022/10/30 03:56:38;;;;;;;20.23;11.10;;;;;;;;;;4967664;28;20348;-63
2022/10/30 03:59:03;;;;;;;16.95;9.23;;;;;;;;;;4966024;28;20029;-63
2022/10/30 04:01:29;;;;;;;15.88;9.05;;;;;;;;;;4969373;28;20364;-63
2022/10/30 04:03:54;;;;;;;17.45;9.98;;;;;;;;;;4968155;28;20393;-63
2022/10/30 04:06:19;;;;;;;18.42;10.38;;;;;;;;;;4954233;28;20475;-63
2022/10/30 04:08:45;;;;;;;17.23;9.45;;;;;;;;;;4968950;28;20321;-63
2022/10/30 04:11:10;;;;;;;16.75;9.00;;;;;;;;;;4968841;28;20523;-63
2022/10/30 04:13:35;;;;;;;21.90;10.77;;;;;;;;;;4971534;28;20472;-63
2022/10/30 04:16:01;;;;;;;19.02;10.02;;;;;;;;;;4971314;28;20436;-63
2022/10/30 04:18:26;;;;;;;20.30;10.05;;;;;;;;;;4972099;28;20052;-63
2022/10/30 04:20:51;;;;;;;19.35;10.32;;;;;;;;;;4973159;28;20467;-63
2022/10/30 04:23:18;;;;;;;16.90;10.15;;;;;;;;;;4973519;28;20444;-63
2022/10/30 04:25:43;;;;;;;19.90;10.73;;;;;;;;;;4953566;28;20506;-63
2022/10/30 04:28:09;;;;;;;21.45;11.00;;;;;;;;;;4971537;28;20452;-63
2022/10/30 04:30:35;;;;;;;18.88;10.10;;;;;;;;;;4971114;28;20439;-64
2022/10/30 04:33:03;;;;;;;17.67;9.30;;;;;;;;;;4971588;28;20103;-63
2022/10/30 04:35:31;;;;;;;18.10;9.38;;;;;;;;;;4972211;28;20413;-63
2022/10/30 04:37:58;;;;;;;18.85;10.48;;;;;;;;;;4971337;28;20405;-63
2022/10/30 04:40:25;;;;;;;17.67;9.65;;;;;;;;;;4970874;28;20336;-63
2022/10/30 04:42:51;;;;;;;19.65;9.35;;;;;;;;;;4971004;28;20593;-63
2022/10/30 04:45:17;;;;;;;18.30;10.38;;;;;;;;;;4970904;28;20443;-63
2022/10/30 04:47:43;;;;;;;18.85;9.77;;;;;;;;;;4970825;28;20352;-63
2022/10/30 04:50:09;;;;;;;19.25;10.13;;;;;;;;;;4970822;28;20044;-63
2022/10/30 04:52:35;;;;;;;17.67;9.27;;;;;;;;;;4970605;28;20033;-62
2022/10/30 04:55:00;;;;;;;20.23;10.88;;;;;;;;;;4970823;28;20025;-64
2022/10/30 04:57:26;;;;;;;21.55;10.27;;;;;;;;;;4970757;28;20340;-63
2022/10/30 04:59:51;;;;;;;16.95;9.27;;;;;;;;;;4970724;28;20441;-63
2022/10/30 05:02:19;;;;;;;17.63;9.18;;;;;;;;;;4970621;28;20463;-63
2022/10/30 05:04:45;;;;;;;19.38;9.50;;;;;;;;;;4970614;28;20436;-63
2022/10/30 05:07:11;;;;;;;21.05;10.10;;;;;;;;;;4970609;28;20459;-63
2022/10/30 05:09:36;;;;;;;16.65;9.18;;;;;;;;;;4970454;28;20437;-63
2022/10/30 05:12:02;;;;;;;24.27;9.98;;;;;;;;;;4970679;28;20344;-63
2022/10/30 05:14:31;;;;;;;16.88;8.27;;;;;;;;;;4971003;28;20401;-63
2022/10/30 05:16:57;;;;;;;22.52;9.98;;;;;;;;;;4970666;28;20490;-63
2022/10/30 05:19:22;;;;;;;20.00;9.73;;;;;;;;;;4970666;28;20511;-63
2022/10/30 05:21:47;;;;;;;20.00;9.95;;;;;;;;;;4970277;28;20472;-63
2022/10/30 05:24:13;;;;;;;19.73;9.73;;;;;;;;;;4969630;28;20095;-63
2022/10/30 05:26:38;;;;;;;19.33;9.68;;;;;;;;;;4970166;28;20462;-63
2022/10/30 05:29:03;;;;;;;17.20;8.52;;;;;;;;;;4970358;28;20108;-63
2022/10/30 05:31:29;;;;;;;20.20;9.50;;;;;;;;;;4969973;28;20523;-63
2022/10/30 05:33:54;;;;;;;22.63;10.90;;;;;;;;;;4969655;28;20447;-63
2022/10/30 05:36:19;;;;;;;17.08;8.43;;;;;;;;;;4969907;28;20340;-63
2022/10/30 05:38:45;;;;;;;20.95;10.43;;;;;;;;;;4969887;28;20465;-62
2022/10/30 05:41:11;;;;;;;20.83;10.45;;;;;;;;;;4969866;28;20390;-63
2022/10/30 05:43:36;;;;;;;17.88;8.68;;;;;;;;;;4970064;28;20432;-63
2022/10/30 05:46:01;;;;;;;21.73;10.50;;;;;;;;;;4970232;28;20052;-63
2022/10/30 05:48:27;;;;;;;22.05;9.90;;;;;;;;;;4969843;28;20313;-63
2022/10/30 05:50:57;;;;;;;20.63;9.13;;;;;;;;;;4970169;28;20345;-63
2022/10/30 05:53:22;;;;;;;18.83;9.68;;;;;;;;;;4969869;28;20498;-63
2022/10/30 05:55:47;;;;;;;21.88;9.25;;;;;;;;;;4971388;28;20407;-63
2022/10/30 05:58:13;;;;;;;20.45;10.25;;;;;;;;;;4969992;28;20029;-62
2022/10/30 06:00:39;;;;;;;17.27;8.98;;;;;;;;;;4951610;28;20431;-63
2022/10/30 06:03:06;;;;;;;21.85;10.68;;;;;;;;;;4969670;28;20022;-63
2022/10/30 06:05:34;;;;;;;21.08;9.15;;;;;;;;;;4969476;28;20044;-63
2022/10/30 06:08:00;;;;;;;16.50;9.05;;;;;;;;;;4969500;28;20437;-63
2022/10/30 06:10:26;;;;;;;20.25;9.02;;;;;;;;;;4969484;28;20321;-62
2022/10/30 06:12:55;;;;;;;21.58;9.55;;;;;;;;;;4969342;28;20479;-62
2022/10/30 06:15:21;;;;;;;20.85;10.75;;;;;;;;;;4969404;28;20458;-63
2022/10/30 06:17:46;;;;;;;20.10;9.88;;;;;;;;;;4969168;28;20345;-62
2022/10/30 06:20:11;;;;;;;20.30;9.43;;;;;;;;;;4969255;28;20057;-62
2022/10/30 06:22:36;;;;;;;21.83;11.35;;;;;;;;;;4969191;28;20536;-63
2022/10/30 06:25:02;;;;;;;21.38;10.35;;;;;;;;;;4948491;28;20571;-63
2022/10/30 06:27:27;;;;;;;22.77;10.40;;;;;;;;;;4969500;28;20455;-63
2022/10/30 06:29:53;;;;;;;19.88;9.02;;;;;;;;;;4970120;28;20353;-63
2022/10/30 06:32:19;;;;;;;24.27;10.18;;;;;;;;;;4968843;28;20033;-63
2022/10/30 06:34:45;;;;;;;19.35;9.38;;;;;;;;;;4968967;28;20433;-63
2022/10/30 06:37:10;;;;;;;24.58;11.63;;;;;;;;;;4968792;28;20183;-63
2022/10/30 06:39:38;;;;;;;21.30;10.80;;;;;;;;;;4969164;28;20353;-63
2022/10/30 06:42:03;;;;;;;23.75;11.88;;;;;;;;;;4970442;28;20361;-63
2022/10/30 06:44:29;;;;;;;23.08;9.82;;;;;;;;;;4968968;28;20052;-63
2022/10/30 06:46:54;;;;;;;23.80;11.18;;;;;;;;;;4968943;28;20535;-63
2022/10/30 06:49:19;;;;;;;23.63;11.23;;;;;;;;;;4971108;28;20496;-63
2022/10/30 06:51:46;;;;;;;21.85;11.13;;;;;;;;;;4969022;28;20437;-63
2022/10/30 06:54:11;;;;;;;17.13;8.95;;;;;;;;;;4951060;28;20322;-63
2022/10/30 06:56:37;;;;;;;26.25;11.80;;;;;;;;;;4968997;28;20483;-63
2022/10/30 06:59:02;;;;;;;21.27;10.50;;;;;;;;;;4968713;28;20519;-63
2022/10/30 07:01:27;;;;;;;20.90;10.38;;;;;;;;;;4969252;28;20380;-62
2022/10/30 07:03:53;;;;;;;20.63;9.80;;;;;;;;;;4968768;28;20433;-63
2022/10/30 07:06:18;;;;;;;19.05;9.23;;;;;;;;;;4968526;28;20048;-63
2022/10/30 07:08:43;;;;;;;21.10;9.93;;;;;;;;;;4968628;28;20421;-63
2022/10/30 07:11:09;;;;;;;22.73;11.43;;;;;;;;;;4968725;28;20444;-63
2022/10/30 07:13:34;;;;;;;25.90;13.32;;;;;;;;;;4968743;28;20330;-63
2022/10/30 07:15:59;;;;;;;22.45;10.82;;;;;;;;;;4968725;28;20455;-62
2022/10/30 07:18:25;;;;;;;19.02;9.85;;;;;;;;;;4968314;28;20455;-63
2022/10/30 07:20:56;;;;;;;24.27;12.32;;;;;;;;;;4968613;28;20428;-62
2022/10/30 07:23:21;;;;;;;22.20;11.05;;;;;;;;;;4968776;28;20044;-63
2022/10/30 07:25:47;;;;;;;20.83;10.43;;;;;;;;;;4950685;28;20429;-63
2022/10/30 07:28:12;;;;;;;25.27;10.88;;;;;;;;;;4968409;28;20433;-63
2022/10/30 07:30:37;;;;;;;18.38;10.02;;;;;;;;;;4969318;28;20455;-63
2022/10/30 07:33:05;;;;;;;23.52;9.85;;;;;;;;;;4968120;28;20486;-63
2022/10/30 07:35:32;;;;;;;26.02;12.00;;;;;;;;;;4623866;28;10001058;-63
2022/10/30 07:38:05;;;;;;;23.55;10.60;;;;;;;;;;4967454;28;20443;-63
2022/10/30 07:40:31;;;;;;;24.60;11.13;;;;;;;;;;4968251;28;20467;-62
2022/10/30 07:42:57;;;;;;;22.13;11.35;;;;;;;;;;4968447;28;20436;-64
2022/10/30 07:45:23;;;;;;;26.73;12.05;;;;;;;;;;4967680;28;20586;-63
2022/10/30 07:47:48;;;;;;;17.48;9.43;;;;;;;;;;4967998;28;20464;-62
2022/10/30 07:50:14;;;;;;;24.33;10.27;;;;;;;;;;4968009;28;20440;-62
2022/10/30 07:52:39;;;;;;;24.73;11.68;;;;;;;;;;4971172;28;20033;-63
2022/10/30 07:55:05;;;;;;;22.75;11.30;;;;;;;;;;4968635;28;20349;-62
2022/10/30 07:57:35;;;;;;;22.55;10.65;;;;;;;;;;4967618;28;20342;-64
2022/10/30 08:00:00;;;;;;;29.20;13.90;;;;;;;;;;4968149;28;20048;-63
2022/10/30 08:02:26;;;;;;;25.02;11.65;;;;;;;;;;4967844;28;20451;-62
2022/10/30 08:04:51;;;;;;;27.13;12.27;;;;;;;;;;4968649;28;20128;-63
2022/10/30 08:07:18;;;;;;;24.70;12.15;;;;;;;;;;4968298;28;20460;-63
2022/10/30 08:09:44;;;;;;;27.85;12.02;;;;;;;;;;4967791;28;20359;-63
2022/10/30 08:12:09;;;;;;;30.80;12.63;;;;;;;;;;4967908;28;20341;-63
2022/10/30 08:14:35;;;;;;;25.38;12.05;;;;;;;;;;4967828;28;20052;-63
2022/10/30 08:17:00;;;;;;;25.38;12.48;;;;;;;;;;4969818;28;20102;-62
2022/10/30 08:19:25;;;;;;;26.83;12.23;;;;;;;;;;4967696;28;20525;-63
2022/10/30 08:21:51;;;;;;;28.13;13.38;;;;;;;;;;4967841;28;20444;-62
2022/10/30 08:24:16;;;;;;;26.38;11.80;;;;;;;;;;4968209;28;20410;-63
2022/10/30 08:26:41;;;;;;;28.30;12.65;;;;;;;;;;4968522;28;20033;-63
2022/10/30 08:29:07;;;;;;;32.35;15.02;;;;;;;;;;4968741;28;20598;-63
2022/10/30 08:31:32;;;;;;;26.30;11.63;;;;;;;;;;4968334;28;20349;-63
2022/10/30 08:33:57;;;;;;;29.77;12.85;;;;;;;;;;4967347;28;20423;-63
2022/10/30 08:36:23;;;;;;;31.58;13.27;;;;;;;;;;4968556;28;20441;-63
2022/10/30 08:38:48;;;;;;;28.40;13.43;;;;;;;;;;4968024;28;20504;-62
2022/10/30 08:41:13;;;;;;;30.23;12.68;;;;;;;;;;4967529;28;20470;-63
2022/10/30 08:43:39;;;;;;;27.10;11.55;;;;;;;;;;4967400;28;20460;-63
2022/10/30 08:46:04;;;;;;;26.63;11.93;;;;;;;;;;4967630;28;20456;-62
2022/10/30 08:48:29;;;;;;;28.63;12.38;;;;;;;;;;4968371;28;20371;-62
2022/10/30 08:51:00;;;;;;;24.70;12.25;;;;;;;;;;4967340;28;20519;-63
2022/10/30 08:53:25;;;;;;;24.58;11.15;;;;;;;;;;4967847;28;20351;-63
2022/10/30 08:55:50;;;;;;;26.85;11.90;;;;;;;;;;4967656;28;20026;-63
2022/10/30 08:58:16;;;;;;;31.75;13.63;;;;;;;;;;4970032;28;20375;-63
2022/10/30 09:00:41;;;;;;;32.08;12.98;;;;;;;;;;4971106;28;20025;-63
2022/10/30 09:03:06;;;;;;;24.40;10.35;;;;;;;;;;4970956;28;20353;-63
2022/10/30 09:05:32;;;;;;;32.40;13.13;;;;;;;;;;4971799;28;20524;-62
2022/10/30 09:07:59;;;;;;;29.58;12.73;;;;;;;;;;4971075;28;20455;-63
2022/10/30 09:10:25;;;;;;;25.58;12.18;;;;;;;;;;4972574;28;20301;-63
2022/10/30 09:12:54;;;;;;;23.13;11.73;;;;;;;;;;4972924;28;20356;-63
2022/10/30 09:15:20;;;;;;;26.35;12.15;;;;;;;;;;4970568;28;20502;-63
2022/10/30 09:17:45;;;;;;;29.45;12.38;;;;;;;;;;4970434;28;20453;-63
2022/10/30 09:20:12;;;;;;;27.98;13.20;;;;;;;;;;4970741;28;20476;-62
2022/10/30 09:22:41;;;;;;;32.55;13.73;;;;;;;;;;4971054;28;20344;-63
2022/10/30 09:25:06;;;;;;;27.25;12.50;;;;;;;;;;4971984;28;20352;-62
2022/10/30 09:27:36;;;;;;;29.13;13.05;;;;;;;;;;4971421;28;20422;-62
2022/10/30 09:30:02;;;;;;;30.30;14.00;;;;;;;;;;4970487;28;20033;-63
2022/10/30 09:32:27;;;;;;;27.67;13.90;;;;;;;;;;4970030;28;20428;-63
2022/10/30 09:34:53;;;;;;;31.02;14.13;;;;;;;;;;4970783;28;20491;-62
2022/10/30 09:37:18;;;;;;;33.88;14.57;;;;;;;;;;4970149;28;20458;-62
2022/10/30 09:39:43;;;;;;;30.52;13.55;;;;;;;;;;4971076;28;20441;-62
2022/10/30 09:42:35;;;;;;;33.92;14.52;;;;;;;;;;4970348;28;20431;-63
2022/10/30 09:45:38;;;;;;;30.85;14.35;;;;;;;;;;4970344;28;20033;-63
2022/10/30 09:48:29;;;;;;;32.17;14.30;;;;;;;;;;4971737;28;20480;-63
2022/10/30 09:51:10;;;;;;;21.92;10.50;;;;;;;;;;4970036;28;20372;-63
2022/10/30 09:53:57;;;;;;;17.58;9.85;;;;;;;;;;4969981;28;20459;-63
2022/10/30 09:56:48;;;;;;;17.27;8.77;;;;;;;;;;4970036;28;20348;-63
2022/10/30 09:59:24;;;;;;;17.10;8.05;;;;;;;;;;4964829;28;20045;-64
2022/10/30 10:02:01;;;;;;;14.32;7.47;;;;;;;;;;4951914;28;20468;-63
2022/10/30 10:04:51;;;;;;;15.45;7.30;;;;;;;;;;4970324;28;20364;-63
2022/10/30 10:07:29;;;;;;;15.55;8.50;;;;;;;;;;4951802;28;20429;-63
2022/10/30 10:10:06;;;;;;;12.32;6.88;;;;;;;;;;4951224;28;20022;-62
2022/10/30 10:12:38;;;;;;;15.30;7.50;;;;;;;;;;4951623;28;20101;-62
2022/10/30 10:15:10;;;;;;;14.27;7.22;;;;;;;;;;4969747;28;20479;-63
2022/10/30 10:17:38;;;;;;;12.63;7.30;;;;;;;;;;4951898;28;20372;-62
2022/10/30 10:20:05;;;;;;;13.27;7.63;;;;;;;;;;4969832;28;20452;-62
2022/10/30 10:22:49;;;;;;;13.50;7.05;;;;;;;;;;4951564;28;20029;-63
2022/10/30 10:25:18;;;;;;;14.23;7.03;;;;;;;;;;4969999;28;20348;-62
2022/10/30 10:27:58;;;;;;;12.65;6.95;;;;;;;;;;4970458;28;20437;-62
2022/10/30 10:30:25;;;;;;;13.23;6.88;;;;;;;;;;4969590;28;20345;-62
2022/10/30 10:32:56;;;;;;;13.52;7.30;;;;;;;;;;4951166;28;20422;-63
2022/10/30 10:35:39;;;;;;;12.40;6.72;;;;;;;;;;4969026;28;20465;-63
2022/10/30 10:38:23;;;;;;;14.57;7.53;;;;;;;;;;4951302;28;20515;-63
2022/10/30 10:40:56;;;;;;;13.32;7.43;;;;;;;;;;4969895;28;20439;-63
2022/10/30 10:43:21;;;;;;;13.02;8.13;;;;;;;;;;4968767;28;20395;-62
2022/10/30 10:46:13;;;;;;;10.68;6.45;;;;;;;;;;4968902;28;20372;-62
2022/10/30 10:48:59;;;;;;;15.32;7.57;;;;;;;;;;4952731;28;20512;-63
2022/10/30 10:51:28;;;;;;;11.90;7.22;;;;;;;;;;4968854;28;20467;-62
2022/10/30 10:53:57;;;;;;;13.75;6.68;;;;;;;;;;4968947;28;20464;-63
2022/10/30 10:56:27;;;;;;;11.10;6.25;;;;;;;;;;4951125;28;20420;-62
2022/10/30 10:58:58;;;;;;;15.85;6.85;;;;;;;;;;4943245;28;20380;-62
2022/10/30 11:01:32;;;;;;;10.80;6.75;;;;;;;;;;4951098;28;20459;-62
2022/10/30 11:04:14;;;;;;;12.77;6.57;;;;;;;;;;4968653;28;20503;-62
2022/10/30 11:06:42;;;;;;;13.73;7.00;;;;;;;;;;4950843;28;20486;-62
2022/10/30 11:09:15;;;;;;;14.82;6.80;;;;;;;;;;4969233;28;20463;-63
2022/10/30 11:11:42;;;;;;;10.85;6.28;;;;;;;;;;4968403;28;20056;-62
2022/10/30 11:14:22;;;;;;;13.75;7.18;;;;;;;;;;4968729;28;20044;-62
2022/10/30 11:16:57;;;;;;;11.32;6.78;;;;;;;;;;4968897;28;20053;-62
2022/10/30 11:19:23;;;;;;;11.80;6.85;;;;;;;;;;4950557;28;20506;-63
2022/10/30 11:21:50;;;;;;;12.75;6.90;;;;;;;;;;4967697;28;20427;-63
2022/10/30 11:24:32;;;;;;;10.80;6.03;;;;;;;;;;4951313;28;20302;-62
2022/10/30 11:27:24;;;;;;;10.80;6.18;;;;;;;;;;4968482;28;20458;-62
2022/10/30 11:30:00;;;;;;;10.50;6.60;;;;;;;;;;4968237;28;20366;-63
2022/10/30 11:32:30;;;;;;;9.52;5.70;;;;;;;;;;4969027;28;20389;-63
2022/10/30 11:35:10;;;;;;;10.95;6.82;;;;;;;;;;4948631;28;20361;-62
2022/10/30 11:37:37;;;;;;;9.82;5.78;;;;;;;;;;4948631;28;20392;-62
2022/10/30 11:40:05;;;;;;;10.88;6.72;;;;;;;;;;4949593;28;20455;-63
2022/10/30 11:42:31;;;;;;;11.80;5.97;;;;;;;;;;4949537;28;20025;-63
2022/10/30 11:44:56;;;;;;;10.95;6.82;;;;;;;;;;4948423;28;20436;-63
2022/10/30 11:47:31;;;;;;;10.90;6.22;;;;;;;;;;4947368;28;20544;-63
2022/10/30 11:49:58;;;;;;;9.23;5.65;;;;;;;;;;4948694;28;20484;-62
2022/10/30 11:52:25;;;;;;;11.77;6.38;;;;;;;;;;4948321;28;20073;-63
2022/10/30 11:54:57;;;;;;;11.80;6.22;;;;;;;;;;4948567;28;20424;-62
2022/10/30 11:57:26;;;;;;;10.38;6.10;;;;;;;;;;4947153;28;20396;-63
2022/10/30 11:59:53;;;;;;;11.18;6.45;;;;;;;;;;4948558;28;20052;-62
2022/10/30 12:02:28;;;;;;;10.95;6.38;;;;;;;;;;4930737;28;20368;-62
2022/10/30 12:05:00;;;;;;;11.98;5.93;;;;;;;;;;4948737;28;20062;-62
2022/10/30 12:07:30;;;;;;;11.52;6.00;;;;;;;;;;4948707;28;20658;-62
2022/10/30 12:09:58;;;;;;;12.15;6.75;;;;;;;;;;4940804;28;20323;-63
2022/10/30 12:12:27;;;;;;;7.72;5.22;;;;;;;;;;4949088;28;20433;-64
2022/10/30 12:14:53;;;;;;;11.38;6.45;;;;;;;;;;4948339;28;20476;-62
2022/10/30 12:17:20;;;;;;;9.65;5.50;;;;;;;;;;4946817;28;20421;-62
2022/10/30 12:19:47;;;;;;;10.57;6.03;;;;;;;;;;4948462;28;20418;-62
2022/10/30 12:22:23;;;;;;;11.02;6.13;;;;;;;;;;4930606;28;20411;-62
2022/10/30 12:24:49;;;;;;;10.40;6.38;;;;;;;;;;4948345;28;20096;-63
2022/10/30 12:27:16;;;;;;;9.68;5.63;;;;;;;;;;4948042;28;20465;-62
2022/10/30 12:29:59;;;;;;;10.90;5.10;;;;;;;;;;4950226;28;20422;-62
2022/10/30 12:32:28;;;;;;;9.15;5.75;;;;;;;;;;4932052;28;20330;-62
2022/10/30 12:35:02;;;;;;;11.15;6.15;;;;;;;;;;4953556;28;20475;-63
2022/10/30 12:37:39;;;;;;;9.65;5.72;;;;;;;;;;4971491;28;20433;-63
2022/10/30 12:40:21;;;;;;;10.02;5.88;;;;;;;;;;4973438;28;20337;-63
2022/10/30 12:43:12;;;;;;;9.70;5.32;;;;;;;;;;4971282;28;20033;-62
2022/10/30 12:45:43;;;;;;;8.65;4.88;;;;;;;;;;4966043;28;20361;-63
2022/10/30 12:48:08;;;;;;;10.43;5.45;;;;;;;;;;4953213;28;20440;-62
2022/10/30 12:50:54;;;;;;;8.60;5.40;;;;;;;;;;4971230;28;20338;-63
2022/10/30 12:53:30;;;;;;;11.45;5.80;;;;;;;;;;4954286;28;20387;-63
2022/10/30 12:56:08;;;;;;;10.98;5.30;;;;;;;;;;4963703;28;20034;-62
2022/10/30 12:59:26;;;;;;;8.80;5.32;;;;;;;;;;4952867;28;20133;-62
2022/10/30 13:02:24;;;;;;;10.05;5.80;;;;;;;;;;4953354;28;20076;-62
2022/10/30 13:04:54;;;;;;;8.75;5.13;;;;;;;;;;4971654;28;20329;-62
2022/10/30 13:07:24;;;;;;;10.23;5.68;;;;;;;;;;4971030;28;20369;-62
2022/10/30 13:10:21;;;;;;;9.13;5.60;;;;;;;;;;4970720;28;20372;-62
2022/10/30 13:12:51;;;;;;;11.07;5.32;;;;;;;;;;4954439;28;20523;-62
2022/10/30 13:15:49;;;;;;;8.75;4.90;;;;;;;;;;4953513;28;20379;-62
2022/10/30 13:18:16;;;;;;;;;;;;;;;;;;4931648;28;20383;-62
2022/10/30 13:20:45;;;;;;;8.70;5.15;;;;;;;;;;4970443;28;19936;-62
2022/10/30 13:23:15;;;;;;;8.55;5.38;;;;;;;;;;4970955;28;20057;-62
2022/10/30 13:26:00;;;;;;;9.75;5.38;;;;;;;;;;4970424;28;20394;-62
2022/10/30 13:28:29;;;;;;;7.97;5.05;;;;;;;;;;4971466;28;20312;-62
2022/10/30 13:31:11;;;;;;;8.55;5.43;;;;;;;;;;4964490;28;20348;-62
2022/10/30 13:33:48;;;;;;;8.00;5.13;;;;;;;;;;4942838;28;20469;-62
2022/10/30 13:36:19;;;;;;;8.40;5.25;;;;;;;;;;4951100;28;20084;-62
2022/10/30 13:38:50;;;;;;;9.27;5.38;;;;;;;;;;4950731;28;20353;-62
2022/10/30 13:41:19;;;;;;;9.43;5.40;;;;;;;;;;4950889;28;20057;-62
2022/10/30 13:43:53;;;;;;;9.23;5.35;;;;;;;;;;4950086;28;20495;-62
2022/10/30 13:46:56;;;;;;;10.35;5.68;;;;;;;;;;4951034;28;20464;-63
2022/10/30 13:49:46;;;;;;;8.75;4.72;;;;;;;;;;4950789;28;20380;-62
2022/10/30 13:52:16;;;;;;;9.60;5.20;;;;;;;;;;4933285;28;20345;-62
2022/10/30 13:54:50;;;;;;;9.82;5.63;;;;;;;;;;4950528;28;20109;-62
2022/10/30 13:57:25;;;;;;;8.30;4.82;;;;;;;;;;4950322;28;20504;-62
2022/10/30 14:00:15;;;;;;;10.73;4.93;;;;;;;;;;4932649;28;20768;-62
2022/10/30 14:03:09;;;;;;;11.15;4.85;;;;;;;;;;4950219;28;20437;-62
2022/10/30 14:05:34;;;;;;;11.52;5.90;;;;;;;;;;4950101;28;20365;-62
2022/10/30 14:08:08;;;;;;;8.38;5.00;;;;;;;;;;4950925;28;20318;-62
2022/10/30 14:10:46;;;;;;;8.38;5.20;;;;;;;;;;4950462;28;20433;-62
2022/10/30 14:13:41;;;;;;;11.32;6.10;;;;;;;;;;4932402;28;20022;-62
2022/10/30 14:16:06;;;;;;;11.00;5.18;;;;;;;;;;4936761;28;20362;-62
2022/10/30 14:19:03;;;;;;;7.57;4.85;;;;;;;;;;4932002;28;20401;-62
2022/10/30 14:21:51;;;;;;;10.55;5.53;;;;;;;;;;4951378;28;20309;-62
2022/10/30 14:24:26;;;;;;;11.93;5.82;;;;;;;;;;4950528;28;20048;-62
2022/10/30 14:27:04;;;;;;;10.73;5.85;;;;;;;;;;4949560;28;20088;-62
2022/10/30 14:29:31;;;;;;;9.98;5.45;;;;;;;;;;4949967;28;20465;-62
2022/10/30 14:31:57;;;;;;;9.07;5.40;;;;;;;;;;4949415;28;20311;-62
2022/10/30 14:34:41;;;;;;;8.75;4.90;;;;;;;;;;4931983;28;20198;-62
2022/10/30 14:37:06;;;;;;;9.45;4.72;;;;;;;;;;4949686;28;20122;-62
2022/10/30 14:39:46;;;;;;;9.55;5.10;;;;;;;;;;4949795;28;20117;-62
2022/10/30 14:42:22;;;;;;;9.88;6.13;;;;;;;;;;4949217;28;20065;-62